createdAt,value
2022-11-24T00:02:03.862Z,92.25
2022-11-24T00:04:31.802Z,88.30
2022-11-24T00:07:00.083Z,89.60
2022-11-24T00:09:28.465Z,83.07
2022-11-24T00:11:56.870Z,94.15
2022-11-24T00:14:25.336Z,95.60
2022-11-24T00:16:53.788Z,104.93
2022-11-24T00:19:22.153Z,96.55
2022-11-24T00:21:50.582Z,96.22
2022-11-24T00:24:19.077Z,99.68
2022-11-24T00:26:47.510Z,112.70
2022-11-24T00:29:16.625Z,108.65
2022-11-24T00:31:44.339Z,109.97
2022-11-24T00:34:15.251Z,117.53
2022-11-24T00:36:44.161Z,114.60
2022-11-24T00:39:15.820Z,124.88
2022-11-24T00:41:45.972Z,97.30
2022-11-24T00:44:16.063Z,113.97
2022-11-24T00:46:46.319Z,118.68
2022-11-24T00:49:16.482Z,121.90
2022-11-24T00:51:46.720Z,96.45
2022-11-24T00:54:16.849Z,111.63
2022-11-24T00:56:47.766Z,103.50
2022-11-24T00:59:17.849Z,114.43
2022-11-24T01:01:47.950Z,123.78
2022-11-24T01:04:18.175Z,104.70
2022-11-24T01:06:46.473Z,102.68
2022-11-24T01:09:14.881Z,120.78
2022-11-24T01:12:01.418Z,107.82
2022-11-24T01:14:33.404Z,100.05
2022-11-24T05:34:01.076Z,100.35
2022-11-24T05:36:49.895Z,91.32
2022-11-24T05:39:21.641Z,83.25
2022-11-24T05:41:52.287Z,73.55
2022-11-24T05:44:22.582Z,79.88
2022-11-24T05:46:52.958Z,91.63
2022-11-24T05:49:23.067Z,72.00
2022-11-24T05:51:53.180Z,61.40
2022-11-24T05:54:23.244Z,65.30
2022-11-24T05:56:53.832Z,73.55
2022-11-24T05:59:24.096Z,79.63
2022-11-24T06:01:52.653Z,96.65
2022-11-24T06:04:20.908Z,78.15
2022-11-24T06:06:49.332Z,78.30
2022-11-24T06:09:18.082Z,67.82
2022-11-24T06:11:49.093Z,67.97
2022-11-24T06:14:19.376Z,59.67
2022-11-24T06:16:49.577Z,68.10
2022-11-24T06:19:19.678Z,64.05
2022-11-24T06:21:49.835Z,71.88
2022-11-24T06:24:18.281Z,67.13
2022-11-24T06:26:46.714Z,62.10
2022-11-24T06:29:15.482Z,61.65
2022-11-24T06:31:43.660Z,62.85
2022-11-24T06:34:13.812Z,70.22
2022-11-24T06:36:43.983Z,69.13
2022-11-24T06:39:12.198Z,72.32
2022-11-24T06:41:40.784Z,87.05
2022-11-24T06:44:10.941Z,87.75
2022-11-24T06:46:40.988Z,65.70
2022-11-24T06:49:10.887Z,60.50
2022-11-24T06:51:41.929Z,61.85
2022-11-24T06:54:18.448Z,70.57
2022-11-24T06:56:48.593Z,67.35
2022-11-24T06:59:21.036Z,66.22
2022-11-24T07:01:50.180Z,84.32
2022-11-24T07:04:19.237Z,72.15
2022-11-24T07:06:46.997Z,67.28
2022-11-24T07:09:15.170Z,65.78
2022-11-24T07:11:43.715Z,58.92
2022-11-24T07:14:12.762Z,59.45
2022-11-24T07:16:40.780Z,67.65
2022-11-24T07:19:11.109Z,56.08
2022-11-24T07:21:40.565Z,69.57
2022-11-24T07:24:10.485Z,54.30
2022-11-24T07:26:40.620Z,69.93
2022-11-24T07:29:10.645Z,54.67
2022-11-24T07:31:40.451Z,63.47
2022-11-24T07:34:10.641Z,56.03
2022-11-24T07:36:41.080Z,59.58
2022-11-24T07:39:10.424Z,58.47
2022-11-24T07:41:40.211Z,68.07
2022-11-24T07:44:09.967Z,61.17
2022-11-24T07:46:39.861Z,61.30
2022-11-24T07:49:09.843Z,63.78
2022-11-24T07:51:39.770Z,67.03
2022-11-24T07:54:10.388Z,61.65
2022-11-24T07:56:40.210Z,60.83
2022-11-24T07:59:09.881Z,58.63
2022-11-24T08:01:39.742Z,60.15
2022-11-24T08:04:09.748Z,59.28
2022-11-24T08:06:43.264Z,65.07
2022-11-24T08:09:17.094Z,54.47
2022-11-24T08:11:47.017Z,58.45
2022-11-24T08:14:17.041Z,62.45
2022-11-24T08:16:46.619Z,55.38
2022-11-24T08:19:16.365Z,56.67
2022-11-24T08:21:46.065Z,56.85
2022-11-24T08:24:17.071Z,57.83
2022-11-24T08:26:47.203Z,50.72
2022-11-24T08:29:17.007Z,56.40
2022-11-24T08:31:47.123Z,61.85
2022-11-24T08:34:17.247Z,58.75
2022-11-24T08:36:47.087Z,61.90
2022-11-24T08:39:17.404Z,55.13
2022-11-24T08:41:46.704Z,61.25
2022-11-24T08:44:18.357Z,65.35
2022-11-24T08:46:49.306Z,62.13
2022-11-24T08:49:19.087Z,58.83
2022-11-24T08:51:51.309Z,63.65
2022-11-24T08:54:21.750Z,57.78
2022-11-24T08:56:51.937Z,61.28
2022-11-24T08:59:21.781Z,59.92
2022-11-24T09:01:51.579Z,55.25
2022-11-24T09:04:21.902Z,53.60
2022-11-24T09:06:51.374Z,57.50
2022-11-24T09:09:21.258Z,60.67
2022-11-24T09:11:50.971Z,57.63
2022-11-24T09:14:21.063Z,53.03
2022-11-24T09:16:48.381Z,61.33
2022-11-24T09:19:18.056Z,54.63
2022-11-24T09:21:45.380Z,62.78
2022-11-24T09:24:16.664Z,58.67
2022-11-24T09:26:47.623Z,59.28
2022-11-24T09:29:16.449Z,57.97
2022-11-24T09:31:46.028Z,57.97
2022-11-24T09:34:17.003Z,58.47
2022-11-24T09:36:46.267Z,57.45
2022-11-24T09:39:16.267Z,61.10
2022-11-24T09:42:46.948Z,58.63
2022-11-24T09:46:05.490Z,54.45
2022-11-24T09:48:46.012Z,57.63
2022-11-24T09:51:22.616Z,63.78
2022-11-24T09:54:16.598Z,59.13
2022-11-24T09:56:51.384Z,59.60
2022-11-24T09:59:24.832Z,59.20
2022-11-24T10:01:54.514Z,57.47
2022-11-24T10:04:41.368Z,62.35
2022-11-24T10:08:07.768Z,57.42
2022-11-24T10:11:01.002Z,64.32
2022-11-24T10:14:29.137Z,57.17
2022-11-24T10:17:50.066Z,63.50
2022-11-24T10:20:36.434Z,62.50
2022-11-24T10:23:56.638Z,60.08
2022-11-24T10:27:22.156Z,57.80
2022-11-24T10:29:53.487Z,54.92
2022-11-24T10:32:46.120Z,56.95
2022-11-24T10:35:27.737Z,61.25
2022-11-24T10:38:21.497Z,58.20
2022-11-24T10:41:21.826Z,58.50
2022-11-24T10:43:52.935Z,56.22
2022-11-24T10:46:31.534Z,59.75
2022-11-24T10:49:06.207Z,55.58
2022-11-24T10:52:11.752Z,55.35
2022-11-24T10:55:05.586Z,53.50
2022-11-24T10:57:40.071Z,53.85
2022-11-24T11:00:18.952Z,64.03
2022-11-24T11:03:10.644Z,58.15
2022-11-24T11:05:50.887Z,60.75
2022-11-24T11:08:29.564Z,58.00
2022-11-24T11:11:28.703Z,56.25
2022-11-24T11:16:55.609Z,51.10
2022-11-24T11:19:49.475Z,60.22
2022-11-24T11:22:29.029Z,53.55
2022-11-24T11:25:11.314Z,52.97
2022-11-24T11:27:42.577Z,53.58
2022-11-24T11:36:19.089Z,51.15
2022-11-24T11:38:48.575Z,49.95
2022-11-24T11:41:36.022Z,53.03
2022-11-24T11:44:48.353Z,53.47
2022-11-24T11:47:48.872Z,57.67
2022-11-24T11:51:14.775Z,58.20
2022-11-24T11:54:06.921Z,51.95
2022-11-24T11:56:45.915Z,53.67
2022-11-24T11:59:24.362Z,49.95
2022-11-24T12:03:05.126Z,55.72
2022-11-24T12:06:34.533Z,52.60
2022-11-24T12:09:24.480Z,51.22
2022-11-24T12:12:36.158Z,49.05
2022-11-24T12:15:47.857Z,51.13
2022-11-24T12:21:52.543Z,55.03
2022-11-24T12:25:03.443Z,51.33
2022-11-24T12:28:22.006Z,54.53
2022-11-24T12:31:27.142Z,55.72
2022-11-24T12:34:38.228Z,52.05
2022-11-24T12:37:51.812Z,54.13
2022-11-24T12:44:02.973Z,55.75
2022-11-24T12:47:12.774Z,56.35
2022-11-24T12:50:18.829Z,51.60
2022-11-24T12:53:02.550Z,50.63
2022-11-24T12:55:34.467Z,48.63
2022-11-24T12:58:50.962Z,53.15
2022-11-24T13:01:36.147Z,49.72
2022-11-24T13:04:48.515Z,46.38
2022-11-24T13:07:47.592Z,46.08
2022-11-24T13:13:16.732Z,48.88
2022-11-24T13:19:02.607Z,52.87
2022-11-24T13:21:47.334Z,51.72
2022-11-24T13:24:18.041Z,51.67
2022-11-24T13:26:55.607Z,52.53
2022-11-24T13:29:45.539Z,48.70
2022-11-24T13:32:15.530Z,48.17
2022-11-24T13:34:55.144Z,49.75
2022-11-24T13:37:33.720Z,47.75
2022-11-24T13:40:11.819Z,54.85
2022-11-24T13:43:02.331Z,54.13
2022-11-24T13:45:39.306Z,48.35
2022-11-24T13:48:22.419Z,50.20
2022-11-24T13:50:53.358Z,50.88
2022-11-24T13:53:46.601Z,44.47
2022-11-24T13:56:16.609Z,50.35
2022-11-24T13:59:18.779Z,50.67
2022-11-24T14:01:58.726Z,49.97
2022-11-24T14:04:31.496Z,46.22
2022-11-24T14:07:13.201Z,51.20
2022-11-24T14:09:51.268Z,46.30
2022-11-24T14:12:26.875Z,51.63
2022-11-24T14:15:35.536Z,49.35
2022-11-24T14:20:51.124Z,40.72
2022-11-24T14:23:21.608Z,51.67
2022-11-24T14:25:53.652Z,49.67
2022-11-24T14:28:29.483Z,50.15
2022-11-24T14:31:25.769Z,48.25
2022-11-24T14:34:21.185Z,48.92
2022-11-24T14:36:52.616Z,53.95
2022-11-24T14:39:27.291Z,50.33
2022-11-24T14:42:23.825Z,51.42
2022-11-24T14:45:04.171Z,51.70
2022-11-24T14:47:45.506Z,47.92
2022-11-24T14:50:22.556Z,55.75
2022-11-24T14:52:59.066Z,53.80
2022-11-24T14:55:39.239Z,51.88
2022-11-24T14:58:37.674Z,53.13
2022-11-24T15:01:24.016Z,49.97
2022-11-24T15:05:02.046Z,52.97
2022-11-24T15:07:29.778Z,52.28
2022-11-24T15:10:06.863Z,53.75
2022-11-24T15:12:42.197Z,54.47
2022-11-24T15:15:15.429Z,55.88
2022-11-24T15:17:59.183Z,52.17
2022-11-24T15:20:46.635Z,56.53
2022-11-24T15:23:29.783Z,55.40
2022-11-24T15:26:02.520Z,55.40
2022-11-24T15:28:33.674Z,55.83
2022-11-24T15:31:14.215Z,58.78
2022-11-24T15:33:42.609Z,63.35
2022-11-24T15:36:12.414Z,69.65
2022-11-24T15:38:42.966Z,64.88
2022-11-24T15:41:21.924Z,63.13
2022-11-24T15:43:58.844Z,59.83
2022-11-24T15:46:38.220Z,61.78
2022-11-24T15:49:08.526Z,59.60
2022-11-24T15:51:47.058Z,55.45
2022-11-24T15:54:19.595Z,57.33
2022-11-24T15:56:49.647Z,55.08
2022-11-24T15:59:21.220Z,64.47
2022-11-24T16:01:51.657Z,63.58
2022-11-24T16:04:21.521Z,65.88
2022-11-24T16:06:51.229Z,64.65
2022-11-24T16:09:21.027Z,65.20
2022-11-24T16:11:50.798Z,63.42
2022-11-24T16:14:20.646Z,70.95
2022-11-24T16:16:50.928Z,61.30
2022-11-24T16:19:20.685Z,65.53
2022-11-24T16:21:50.614Z,60.50
2022-11-24T16:24:23.676Z,63.78
2022-11-24T16:26:53.245Z,63.15
2022-11-24T16:29:24.342Z,59.83
2022-11-24T16:31:54.780Z,64.07
2022-11-24T16:34:24.516Z,55.25
2022-11-24T16:36:54.151Z,56.67
2022-11-24T16:39:23.969Z,56.47
2022-11-24T16:41:53.606Z,59.15
2022-11-24T16:44:23.270Z,59.33
2022-11-24T16:46:53.794Z,61.22
2022-11-24T16:49:23.072Z,58.88
2022-11-24T16:51:53.037Z,60.25
2022-11-24T16:54:22.977Z,54.72
2022-11-24T16:56:52.698Z,58.60
2022-11-24T16:59:23.085Z,59.60
2022-11-24T17:01:52.723Z,64.82
2022-11-24T17:04:22.710Z,55.85
2022-11-24T17:06:52.649Z,61.70
2022-11-24T17:09:22.602Z,61.95
2022-11-24T17:11:52.309Z,60.67
2022-11-24T17:14:20.733Z,62.72
2022-11-24T17:16:49.150Z,66.47
2022-11-24T17:19:17.586Z,66.85
2022-11-24T17:21:46.553Z,67.85
2022-11-24T17:24:17.638Z,62.13
2022-11-24T17:26:49.340Z,68.78
2022-11-24T17:29:19.510Z,67.60
2022-11-24T17:31:49.339Z,62.40
2022-11-24T17:34:19.509Z,56.63
2022-11-24T17:36:49.167Z,64.25
2022-11-24T17:39:23.361Z,70.88
2022-11-24T17:41:53.531Z,71.30
2022-11-24T17:44:20.628Z,63.45
2022-11-24T17:46:50.306Z,74.10
2022-11-24T17:49:21.259Z,71.53
2022-11-24T17:51:50.727Z,72.15
2022-11-24T17:57:10.700Z,67.25
2022-11-24T17:59:39.349Z,71.10
2022-11-24T18:02:10.159Z,70.60
2022-11-24T18:04:40.248Z,69.65
2022-11-24T18:07:07.830Z,71.18
2022-11-24T18:09:37.080Z,76.32
2022-11-24T18:12:06.295Z,75.03
2022-11-24T18:14:36.791Z,76.22
2022-11-24T18:17:07.470Z,76.22
2022-11-24T18:19:37.576Z,77.75
2022-11-24T18:22:07.634Z,75.75
2022-11-24T18:24:38.053Z,65.97
2022-11-24T18:27:08.405Z,73.95
2022-11-24T18:29:38.401Z,71.68
2022-11-24T18:32:08.512Z,68.53
2022-11-24T18:34:38.702Z,67.78
2022-11-24T18:37:10.768Z,58.90
2022-11-24T18:39:42.431Z,58.95
2022-11-24T18:42:15.728Z,67.70
2022-11-24T18:44:49.746Z,71.97
2022-11-24T18:47:22.969Z,71.50
2022-11-24T18:49:52.992Z,73.25
2022-11-24T18:52:23.014Z,68.25
2022-11-24T18:54:53.053Z,65.82
2022-11-24T18:57:23.271Z,66.18
2022-11-24T18:59:53.397Z,66.47
2022-11-24T19:02:23.595Z,62.15
2022-11-24T19:04:53.739Z,64.32
2022-11-24T19:07:23.916Z,79.75
2022-11-24T19:09:53.958Z,71.38
2022-11-24T19:12:24.690Z,69.45
2022-11-24T19:14:55.322Z,74.32
2022-11-24T19:17:25.620Z,78.65
2022-11-24T19:19:55.819Z,64.93
2022-11-24T19:22:25.823Z,61.97
2022-11-24T19:24:55.820Z,66.43
2022-11-24T19:27:25.867Z,64.22
2022-11-24T19:29:55.915Z,72.85
2022-11-24T19:32:26.015Z,71.35
2022-11-24T19:34:55.991Z,66.38
2022-11-24T19:37:29.148Z,70.45
2022-11-24T19:39:59.191Z,73.22
2022-11-24T19:42:29.263Z,66.57
2022-11-24T19:44:59.264Z,68.90
2022-11-24T19:47:29.409Z,84.82
2022-11-24T19:49:59.568Z,79.00
2022-11-24T19:52:29.602Z,66.55
2022-11-24T19:55:00.172Z,67.18
2022-11-24T19:57:30.363Z,94.18
2022-11-24T20:00:00.432Z,117.30
2022-11-24T20:02:29.905Z,149.85
2022-11-24T20:04:57.431Z,110.97
2022-11-24T20:07:25.982Z,91.38
2022-11-24T20:09:54.337Z,93.90
2022-11-24T20:12:23.463Z,69.18
2022-11-24T20:14:52.538Z,70.10
2022-11-24T20:17:22.623Z,68.93
2022-11-24T20:19:52.704Z,67.13
2022-11-24T20:22:22.710Z,58.97
2022-11-24T20:24:52.734Z,64.65
2022-11-24T20:27:22.805Z,63.60
2022-11-24T20:29:52.822Z,53.67
2022-11-24T20:32:22.820Z,55.60
2022-11-24T20:34:52.795Z,66.85
2022-11-24T20:37:23.416Z,60.95
2022-11-24T20:39:52.848Z,58.70
2022-11-24T20:42:21.569Z,76.68
2022-11-24T20:44:51.488Z,76.10
2022-11-24T20:47:21.252Z,82.00
2022-11-24T20:49:50.954Z,56.83
2022-11-24T20:52:20.832Z,71.22
2022-11-24T20:54:50.598Z,59.00
2022-11-24T20:57:20.244Z,52.63
2022-11-24T20:59:50.146Z,57.58
2022-11-24T21:02:21.219Z,49.42
2022-11-24T21:04:51.346Z,55.00
2022-11-24T21:07:21.048Z,43.67
2022-11-24T21:09:50.784Z,49.08
2022-11-24T21:12:20.778Z,58.88
2022-11-24T21:14:50.524Z,71.53
2022-11-24T21:17:20.287Z,58.13
2022-11-24T21:19:50.052Z,59.60
2022-11-24T21:22:19.799Z,56.80
2022-11-24T21:24:49.453Z,60.88
2022-11-24T21:27:19.306Z,62.58
2022-11-24T21:29:49.029Z,50.60
2022-11-24T21:32:19.104Z,57.63
2022-11-24T21:34:48.492Z,59.70
2022-11-24T21:37:17.029Z,48.47
2022-11-24T21:39:45.888Z,51.20
2022-11-24T21:42:15.695Z,56.20
2022-11-24T21:44:45.481Z,60.03
2022-11-24T21:47:12.573Z,63.58
2022-11-24T21:49:39.785Z,65.85
2022-11-24T21:52:08.343Z,72.68
2022-11-24T21:54:37.003Z,66.32
2022-11-24T21:57:05.261Z,69.00
2022-11-24T21:59:33.703Z,69.93
2022-11-24T22:02:02.286Z,76.25
2022-11-24T22:04:30.631Z,73.00
2022-11-24T22:06:59.168Z,51.40
2022-11-24T22:09:27.547Z,55.38
2022-11-24T22:11:56.047Z,70.72
2022-11-24T22:14:24.357Z,52.55
2022-11-24T22:16:53.405Z,50.63
2022-11-24T22:19:21.320Z,78.47
2022-11-24T22:21:49.868Z,59.63
2022-11-24T22:24:21.688Z,50.45
2022-11-24T22:26:54.941Z,54.70
2022-11-24T22:29:23.727Z,51.83
2022-11-24T22:31:50.988Z,62.67
2022-11-24T22:34:20.849Z,75.43
2022-11-24T22:36:50.842Z,65.03
2022-11-24T22:39:20.443Z,62.75
2022-11-24T22:41:50.257Z,52.92
2022-11-24T22:44:23.055Z,66.05
2022-11-24T22:46:53.257Z,65.25
2022-11-24T22:49:23.715Z,52.83
2022-11-24T22:51:53.752Z,64.75
2022-11-24T22:54:23.795Z,57.17
2022-11-24T22:56:53.470Z,57.33
2022-11-24T22:59:23.611Z,64.55
2022-11-24T23:01:53.191Z,52.83
2022-11-24T23:04:23.296Z,58.17
2022-11-24T23:06:53.400Z,52.00
2022-11-24T23:09:23.141Z,65.82
2022-11-24T23:11:52.906Z,46.88
2022-11-24T23:14:22.776Z,59.42
2022-11-24T23:16:54.217Z,60.65
2022-11-24T23:19:24.287Z,51.30
2022-11-24T23:21:54.472Z,54.53
2022-11-24T23:24:24.508Z,60.10
2022-11-24T23:26:54.632Z,56.60
2022-11-24T23:29:24.741Z,58.30
2022-11-24T23:31:54.789Z,63.75
2022-11-24T23:34:24.822Z,54.47
2022-11-24T23:36:54.900Z,51.50
2022-11-24T23:39:24.949Z,57.92
2022-11-24T23:41:55.092Z,59.40
2022-11-24T23:44:25.380Z,54.25
2022-11-24T23:46:55.767Z,67.78
2022-11-24T23:49:31.963Z,54.30
2022-11-24T23:52:02.044Z,53.30
2022-11-24T23:54:32.168Z,50.60
2022-11-24T23:57:02.289Z,54.53
2022-11-24T23:59:32.306Z,54.55
